Time;durP1;ratioP1;P1;durP2;ratioP2;P2;SDS_P1;SDS_P2;PMS_P1;PMS_P2;Temp;Humidity;BMP_temperature;BMP_pressure;BME280_temperature;BME280_humidity;BME280_pressure;Samples;Min_cycle;Max_cycle;Signal;HPM_P1;HPM_P2
2022/10/27 00:00:13;;;;;;;13.18;9.15;;;;;;;12.61;71.80;101653.13;824058;23;1337;-78
2022/10/27 00:00:36;;;;;;;12.70;9.27;;;;;;;12.66;71.88;101660.25;828104;23;1201;-78
2022/10/27 00:00:57;;;;;;;12.00;9.20;;;;;;;12.65;71.75;101655.84;829382;23;949;-78
2022/10/27 00:01:17;;;;;;;11.23;8.67;;;;;;;12.64;71.66;101662.81;833260;23;946;-78
2022/10/27 00:01:38;;;;;;;10.38;8.32;;;;;;;12.68;71.85;101669.94;832075;23;1086;-78
2022/10/27 00:01:58;;;;;;;10.83;8.10;;;;;;;12.64;72.02;101659.31;824071;24;1118;-77
2022/10/27 00:02:19;;;;;;;11.00;8.30;;;;;;;12.69;71.72;101660.34;827651;23;1029;-77
2022/10/27 00:02:39;;;;;;;12.88;8.70;;;;;;;12.65;71.69;101659.34;832074;23;1011;-77
2022/10/27 00:03:00;;;;;;;11.03;8.50;;;;;;;12.69;71.86;101670.81;827057;23;1015;-78
2022/10/27 00:03:21;;;;;;;11.68;8.40;;;;;;;12.61;71.67;101658.34;827913;23;1463;-77
2022/10/27 00:03:42;;;;;;;10.60;8.27;;;;;;;12.62;72.00;101664.50;828251;23;1222;-78
2022/10/27 00:04:04;;;;;;;11.48;8.77;;;;;;;12.59;71.84;101660.03;828213;23;1079;-78
2022/10/27 00:04:24;;;;;;;12.05;9.30;;;;;;;12.61;71.68;101658.34;829767;23;743;-78
2022/10/27 00:04:45;;;;;;;11.87;9.00;;;;;;;12.63;71.64;101654.88;828397;23;1108;-78
2022/10/27 00:05:06;;;;;;;11.80;8.77;;;;;;;12.65;71.88;101648.00;828388;23;1364;-77
2022/10/27 00:05:27;;;;;;;10.43;8.25;;;;;;;12.59;71.79;101654.81;820945;24;1165;-77
2022/10/27 00:05:47;;;;;;;9.82;8.13;;;;;;;12.66;71.70;101661.13;824231;24;1387;-77
2022/10/27 00:06:08;;;;;;;9.60;8.43;;;;;;;12.71;71.75;101669.13;820498;24;1182;-78
2022/10/27 00:06:29;;;;;;;11.30;9.07;;;;;;;12.63;71.72;101660.13;828618;23;1484;-77
2022/10/27 00:06:50;;;;;;;10.32;8.90;;;;;;;12.66;71.60;101666.38;820813;24;1322;-78
2022/10/27 00:07:12;;;;;;;10.07;8.52;;;;;;;12.67;71.82;101668.13;824368;24;1898;-77
2022/10/27 00:07:36;;;;;;;10.68;8.10;;;;;;;12.64;71.66;101662.81;825070;24;1409;-77
2022/10/27 00:07:56;;;;;;;12.23;8.20;;;;;;;12.60;71.95;101653.97;828561;23;1330;-77
2022/10/27 00:08:20;;;;;;;12.45;8.23;;;;;;;12.66;71.76;101666.38;826023;23;1066;-76
2022/10/27 00:08:49;;;;;;;9.93;7.93;;;;;;;12.60;71.71;101653.97;825836;24;852;-78
2022/10/27 00:09:28;;;;;;;9.27;8.02;;;;;;;12.59;71.36;101660.03;824654;24;837;-77
2022/10/27 00:09:49;;;;;;;10.55;8.80;;;;;;;12.61;71.51;101657.47;827949;23;1333;-77
2022/10/27 00:10:10;;;;;;;11.35;8.77;;;;;;;12.68;71.57;101669.94;828511;23;1270;-76
2022/10/27 00:10:30;;;;;;;10.93;8.48;;;;;;;12.62;71.33;101664.50;832258;23;1107;-78
2022/10/27 00:10:58;;;;;;;10.90;8.40;;;;;;;12.57;71.80;101660.81;828301;23;1142;-77
2022/10/27 00:11:19;;;;;;;11.05;8.52;;;;;;;12.61;71.85;101658.34;828115;23;1097;-77
2022/10/27 00:11:39;;;;;;;12.40;8.73;;;;;;;12.60;71.57;101661.81;829745;23;760;-77
2022/10/27 00:12:00;;;;;;;12.02;8.80;;;;;;;12.65;71.53;101668.94;832146;23;1134;-78
2022/10/27 00:12:22;;;;;;;11.60;8.80;;;;;;;12.66;71.58;101671.59;832053;23;1477;-77
2022/10/27 00:12:44;;;;;;;10.68;8.57;;;;;;;12.60;71.35;101669.66;828110;23;1368;-77
2022/10/27 00:13:06;;;;;;;10.88;8.75;;;;;;;12.65;71.84;101675.06;828327;23;1115;-77
2022/10/27 00:13:27;;;;;;;10.60;8.50;;;;;;;12.63;71.74;101671.50;829591;23;767;-77
2022/10/27 00:13:48;;;;;;;11.57;8.70;;;;;;;12.57;72.01;101661.72;827928;23;1105;-77
2022/10/27 00:14:09;;;;;;;13.30;9.20;;;;;;;12.67;71.72;101681.22;829568;23;958;-77
2022/10/27 00:14:29;;;;;;;12.80;9.30;;;;;;;12.60;71.48;101666.19;828229;23;911;-78
2022/10/27 00:14:50;;;;;;;10.70;9.10;;;;;;;12.63;71.59;101674.13;827798;23;1264;-77
2022/10/27 00:15:11;;;;;;;9.87;8.70;;;;;;;12.65;71.56;101682.03;824226;24;1160;-78
2022/10/27 00:15:33;;;;;;;9.95;8.57;;;;;;;12.66;71.58;101678.59;823739;24;1207;-77
2022/10/27 00:16:03;;;;;;;10.23;8.45;;;;;;;12.59;71.70;101677.47;824240;24;1190;-77
2022/10/27 00:16:23;;;;;;;10.48;8.65;;;;;;;12.49;71.64;101657.94;824240;23;853;-78
2022/10/27 00:16:51;;;;;;;10.40;8.67;;;;;;;12.54;72.05;101661.59;821940;24;697;-76
2022/10/27 00:17:12;;;;;;;16.83;8.60;;;;;;;12.54;71.84;101663.34;825406;24;1075;-77
2022/10/27 00:17:32;;;;;;;16.40;8.38;;;;;;;12.50;71.63;101664.97;825407;23;792;-77
2022/10/27 00:17:53;;;;;;;16.17;8.40;;;;;;;12.54;71.63;101666.84;824989;23;911;-77
2022/10/27 00:18:14;;;;;;;10.25;7.95;;;;;;;12.51;71.77;101658.88;827659;23;1236;-77
2022/10/27 00:18:37;;;;;;;11.77;8.15;;;;;;;12.49;71.99;101663.19;827760;23;1199;-77
2022/10/27 00:19:00;;;;;;;12.43;8.57;;;;;;;12.53;71.96;101664.19;820123;24;1186;-77
2022/10/27 00:19:22;;;;;;;11.45;8.63;;;;;;;12.50;71.85;101667.59;823924;24;1221;-78
2022/10/27 00:19:57;;;;;;;13.30;9.18;;;;;;;12.51;71.92;101673.69;827475;23;1365;-78
2022/10/27 00:20:18;;;;;;;15.23;9.13;;;;;;;12.52;71.82;101673.75;833392;23;1018;-78
2022/10/27 00:20:38;;;;;;;13.57;8.70;;;;;;;12.45;72.16;101667.44;828056;23;1135;-77
2022/10/27 00:21:05;;;;;;;11.05;8.40;;;;;;;12.41;71.80;101660.28;833321;23;848;-78
2022/10/27 00:21:27;;;;;;;10.70;8.30;;;;;;;12.46;71.92;101669.19;832113;23;1495;-77
2022/10/27 00:21:50;;;;;;;11.70;7.82;;;;;;;12.39;72.02;101661.97;831897;23;1433;-77
2022/10/27 00:22:11;;;;;;;11.48;7.90;;;;;;;12.43;72.12;101674.31;829367;23;1009;-77
2022/10/27 00:22:32;;;;;;;11.35;8.23;;;;;;;12.39;72.07;101653.22;825531;23;811;-77
2022/10/27 00:22:53;;;;;;;10.48;8.52;;;;;;;12.42;71.86;101669.91;825671;24;1065;-77
2022/10/27 00:23:14;;;;;;;12.40;8.30;;;;;;;12.41;72.17;101672.50;820479;24;1091;-78
2022/10/27 00:23:36;;;;;;;12.20;8.23;;;;;;;12.48;72.05;101677.13;826785;23;725;-78
2022/10/27 00:23:57;;;;;;;11.73;8.10;;;;;;;12.37;71.97;101663.66;830545;23;844;-77
2022/10/27 00:24:19;;;;;;;9.77;8.05;;;;;;;12.41;72.04;101664.66;833255;23;1382;-77
2022/10/27 00:24:40;;;;;;;10.10;8.40;;;;;;;12.47;72.07;101677.94;831994;23;1166;-77
2022/10/27 00:25:03;;;;;;;9.50;8.50;;;;;;;12.44;71.85;101675.22;829417;23;1268;-78
2022/10/27 00:25:23;;;;;;;9.32;8.32;;;;;;;12.46;71.79;101679.69;824275;23;1130;-77
2022/10/27 00:25:51;;;;;;;9.10;8.10;;;;;;;12.40;71.73;101662.88;819910;24;1051;-77
2022/10/27 00:26:13;;;;;;;9.25;7.90;;;;;;;12.44;72.01;101667.38;828117;23;1003;-78
2022/10/27 00:26:34;;;;;;;9.38;8.18;;;;;;;12.51;71.78;101687.69;833481;23;776;-78
2022/10/27 00:26:54;;;;;;;10.67;8.00;;;;;;;12.50;71.79;101685.00;833512;23;919;-78
2022/10/27 00:27:15;;;;;;;11.13;8.07;;;;;;;12.48;72.03;101677.13;824204;24;1300;-77
2022/10/27 00:27:36;;;;;;;11.48;8.10;;;;;;;12.43;71.65;101669.06;832146;23;1225;-78
2022/10/27 00:27:58;;;;;;;10.75;8.30;;;;;;;12.46;71.71;101673.53;824282;23;1167;-78
2022/10/27 00:28:18;;;;;;;10.13;8.40;;;;;;;12.44;71.84;101673.50;824165;24;1255;-77
2022/10/27 00:28:40;;;;;;;10.48;8.52;;;;;;;12.42;71.54;101669.03;825650;24;847;-77
2022/10/27 00:29:00;;;;;;;9.32;8.07;;;;;;;12.45;71.66;101679.63;829594;23;927;-77
2022/10/27 00:29:21;;;;;;;10.38;7.95;;;;;;;12.42;71.79;101676.91;832095;23;1056;-77
2022/10/27 00:29:41;;;;;;;10.23;7.60;;;;;;;12.43;71.69;101673.44;833126;23;825;-77
2022/10/27 00:30:02;;;;;;;11.65;7.97;;;;;;;12.46;71.63;101684.91;824073;24;1205;-78
2022/10/27 00:30:23;;;;;;;11.75;7.88;;;;;;;12.46;71.58;101670.91;820460;24;895;-78
2022/10/27 00:30:45;;;;;;;11.70;7.85;;;;;;;12.50;71.44;101691.16;820580;24;1397;-77
2022/10/27 00:31:11;;;;;;;11.10;7.90;;;;;;;12.40;71.54;101668.09;824162;24;1301;-78
2022/10/27 00:31:32;;;;;;;10.32;7.82;;;;;;;12.41;71.46;101675.13;825706;24;843;-78
2022/10/27 00:31:53;;;;;;;9.80;7.83;;;;;;;12.44;71.52;101690.94;828094;23;1347;-78
2022/10/27 00:32:13;;;;;;;11.82;7.97;;;;;;;12.39;71.59;101676.78;828245;23;1121;-78
2022/10/27 00:32:34;;;;;;;12.13;8.13;;;;;;;12.46;71.30;101678.78;832296;23;1159;-78
2022/10/27 00:32:54;;;;;;;12.10;8.23;;;;;;;12.42;71.31;101684.75;833568;23;949;-78
2022/10/27 00:33:15;;;;;;;10.18;8.30;;;;;;;12.39;71.33;101677.69;832018;23;1269;-78
2022/10/27 00:33:37;;;;;;;11.13;8.82;;;;;;;12.40;71.21;101675.97;828202;23;898;-78
2022/10/27 00:33:59;;;;;;;13.50;9.18;;;;;;;12.37;71.57;101673.22;828179;23;1330;-78
2022/10/27 00:34:20;;;;;;;14.45;9.30;;;;;;;12.44;71.58;101688.31;831993;23;1088;-77
2022/10/27 00:34:40;;;;;;;13.47;8.50;;;;;;;12.38;71.66;101686.38;833609;23;822;-77
2022/10/27 00:35:01;;;;;;;12.82;8.38;;;;;;;12.39;71.34;101689.84;829513;23;946;-78
2022/10/27 00:35:21;;;;;;;11.80;8.30;;;;;;;12.40;71.64;101686.44;825830;23;1038;-77
2022/10/27 00:35:42;;;;;;;10.48;8.48;;;;;;;12.36;71.77;101672.34;829605;23;760;-78
2022/10/27 00:36:07;;;;;;;10.82;8.40;;;;;;;12.42;71.85;101682.13;827918;23;1132;-77
2022/10/27 00:36:28;;;;;;;12.07;8.40;;;;;;;12.39;71.84;101676.78;828233;23;1252;-77
2022/10/27 00:36:50;;;;;;;12.90;8.45;;;;;;;12.35;71.97;101678.38;828087;23;1200;-78
2022/10/27 00:37:11;;;;;;;12.80;8.32;;;;;;;12.36;71.46;101677.59;824462;24;1271;-78
2022/10/27 00:37:31;;;;;;;12.35;8.07;;;;;;;12.42;71.45;101682.13;825703;23;785;-77
2022/10/27 00:37:52;;;;;;;13.63;8.10;;;;;;;12.42;71.55;101692.59;821864;24;932;-78
2022/10/27 00:38:13;;;;;;;14.73;8.33;;;;;;;12.38;71.76;101675.00;821761;24;959;-78
2022/10/27 00:38:34;;;;;;;14.57;8.60;;;;;;;12.39;71.63;101676.78;820595;24;1248;-78
2022/10/27 00:38:57;;;;;;;11.95;8.48;;;;;;;12.40;71.54;101678.59;829600;23;1013;-78
2022/10/27 00:39:19;;;;;;;10.45;8.40;;;;;;;12.44;71.69;101691.84;828319;23;1361;-78
2022/10/27 00:39:40;;;;;;;10.50;8.10;;;;;;;12.42;71.37;101683.00;824057;24;1192;-77
2022/10/27 00:40:01;;;;;;;10.13;7.95;;;;;;;12.39;71.72;101682.00;823913;24;1056;-77
2022/10/27 00:40:21;;;;;;;10.80;8.10;;;;;;;12.37;71.93;101678.47;828214;23;1292;-77
2022/10/27 00:40:42;;;;;;;11.88;8.48;;;;;;;12.46;71.66;101689.25;832104;23;1148;-78
2022/10/27 00:41:04;;;;;;;12.10;8.68;;;;;;;12.44;71.75;101690.94;833474;23;1116;-78
2022/10/27 00:41:31;;;;;;;11.80;8.60;;;;;;;12.34;71.46;101669.66;833601;23;841;-78
2022/10/27 00:41:52;;;;;;;12.13;8.40;;;;;;;12.42;71.51;101679.53;831654;23;918;-78
2022/10/27 00:42:13;;;;;;;12.98;8.73;;;;;;;12.34;71.45;101667.06;828436;23;1563;-78
2022/10/27 00:42:35;;;;;;;13.90;9.02;;;;;;;12.41;71.63;101685.59;828247;23;1368;-78
2022/10/27 00:42:56;;;;;;;11.82;8.77;;;;;;;12.39;71.68;101682.00;828233;23;1371;-77
2022/10/27 00:43:31;;;;;;;10.27;8.30;;;;;;;12.41;71.57;101685.59;825837;24;911;-78
2022/10/27 00:43:52;;;;;;;9.57;8.00;;;;;;;12.38;71.73;101686.38;825534;24;919;-77
2022/10/27 00:44:30;;;;;;;9.68;7.90;;;;;;;12.34;71.47;101668.75;825946;24;1213;-78
2022/10/27 00:44:50;;;;;;;9.13;7.60;;;;;;;12.37;71.45;101678.47;834791;23;1000;-77
2022/10/27 00:45:11;;;;;;;9.98;7.45;;;;;;;12.37;71.60;101681.97;840312;23;1025;-77
2022/10/27 00:45:33;;;;;;;12.63;8.07;;;;;;;12.38;71.59;101680.22;832358;23;1228;-78
2022/10/27 00:46:08;;;;;;;15.05;8.38;;;;;;;12.37;71.58;101674.13;824562;24;1182;-78
2022/10/27 00:46:45;;;;;;;12.68;8.30;;;;;;;12.41;71.29;101680.34;821933;24;808;-77
2022/10/27 00:47:39;;;;;;;13.35;8.40;;;;;;;12.38;71.66;101681.13;824142;24;1898;-78
2022/10/27 00:47:59;;;;;;;11.60;8.13;;;;;;;12.44;71.36;101696.16;816566;24;1367;-77
2022/10/27 00:48:24;;;;;;;11.80;8.07;;;;;;;12.45;71.15;101692.69;820921;24;1189;-78
2022/10/27 00:48:48;;;;;;;10.30;7.80;;;;;;;12.40;71.44;101681.19;828235;23;1397;-78
2022/10/27 00:49:13;;;;;;;9.30;7.60;;;;;;;12.42;71.51;101693.47;832159;23;1364;-78
2022/10/27 00:49:57;;;;;;;9.10;7.75;;;;;;;12.36;71.67;101687.16;833719;23;700;-77
2022/10/27 00:50:22;;;;;;;11.85;8.20;;;;;;;12.35;71.38;101688.84;828314;23;1097;-78
2022/10/27 00:50:44;;;;;;;13.65;8.45;;;;;;;12.32;71.55;101675.69;829195;23;1205;-78
2022/10/27 00:51:05;;;;;;;12.70;8.73;;;;;;;12.34;71.46;101690.59;834401;23;979;-78
2022/10/27 00:51:26;;;;;;;11.35;8.30;;;;;;;12.35;71.67;101688.84;826825;24;1433;-77
2022/10/27 00:52:00;;;;;;;10.57;8.10;;;;;;;12.31;71.58;101685.25;823552;24;1229;-78
2022/10/27 00:52:33;;;;;;;11.18;8.45;;;;;;;12.41;71.65;101701.31;819066;24;1184;-78
2022/10/27 00:52:57;;;;;;;12.20;8.05;;;;;;;12.33;71.51;101691.44;828410;24;1026;-77
2022/10/27 00:53:19;;;;;;;10.82;7.50;;;;;;;12.28;71.31;101685.16;828357;23;1106;-77
2022/10/27 00:53:39;;;;;;;12.20;7.78;;;;;;;12.32;71.49;101692.28;830768;23;870;-77
2022/10/27 00:54:00;;;;;;;11.38;8.35;;;;;;;12.34;71.64;101695.84;830760;23;1115;-77
2022/10/27 00:54:24;;;;;;;10.52;8.35;;;;;;;12.30;71.60;101685.22;834741;23;1205;-76
2022/10/27 00:54:46;;;;;;;10.18;8.30;;;;;;;12.30;71.68;101693.06;834206;23;1285;-78
2022/10/27 00:55:19;;;;;;;8.88;7.80;;;;;;;12.28;71.51;101685.16;832257;23;1007;-76
2022/10/27 00:55:40;;;;;;;8.98;7.68;;;;;;;12.36;71.65;101697.63;834304;23;880;-77
2022/10/27 00:56:01;;;;;;;9.05;7.60;;;;;;;12.30;71.57;101687.81;831363;23;1010;-78
2022/10/27 00:56:22;;;;;;;8.95;7.57;;;;;;;12.34;71.46;101695.84;826191;24;1212;-77
2022/10/27 00:56:46;;;;;;;10.15;7.70;;;;;;;12.36;71.45;101695.00;825539;24;834;-78
2022/10/27 00:57:09;;;;;;;9.85;7.70;;;;;;;12.26;71.42;101675.44;825043;23;1082;-77
2022/10/27 00:57:31;;;;;;;9.90;7.80;;;;;;;12.30;71.64;101683.47;829624;23;1135;-77
2022/10/27 00:57:56;;;;;;;9.90;7.78;;;;;;;12.38;71.41;101691.59;825613;23;1308;-77
2022/10/27 00:58:19;;;;;;;11.00;8.00;;;;;;;12.33;71.59;101686.22;826732;24;1045;-78
2022/10/27 00:58:39;;;;;;;12.32;8.30;;;;;;;12.32;71.31;101686.16;824983;24;1138;-77
2022/10/27 00:59:01;;;;;;;11.30;7.65;;;;;;;12.29;71.41;101686.06;825108;24;1256;-77
2022/10/27 00:59:23;;;;;;;11.32;7.90;;;;;;;12.29;71.67;101689.53;823331;24;1167;-77
2022/10/27 00:59:43;;;;;;;11.05;7.65;;;;;;;12.29;71.38;101686.06;828128;23;803;-78
2022/10/27 01:00:05;;;;;;;11.25;7.97;;;;;;;12.32;71.46;101700.13;828757;23;1110;-77
2022/10/27 01:00:27;;;;;;;10.20;7.75;;;;;;;12.24;71.78;101688.50;828874;23;1367;-76
2022/10/27 01:00:49;;;;;;;8.98;7.78;;;;;;;12.26;71.46;101694.69;828731;23;1288;-77
2022/10/27 01:01:11;;;;;;;8.55;7.65;;;;;;;12.22;71.94;101689.28;824767;24;1237;-77
2022/10/27 01:01:31;;;;;;;9.65;7.82;;;;;;;12.15;71.67;101680.28;828806;23;1211;-77
2022/10/27 01:01:52;;;;;;;9.77;7.88;;;;;;;12.19;71.89;101687.44;830592;23;930;-77
2022/10/27 01:02:14;;;;;;;9.75;7.72;;;;;;;12.15;71.84;101683.81;830040;23;942;-77
2022/10/27 01:02:35;;;;;;;8.45;7.35;;;;;;;12.16;72.10;101677.75;834050;23;823;-77
2022/10/27 01:02:56;;;;;;;8.80;7.43;;;;;;;12.14;71.95;101671.56;832517;23;1228;-77
2022/10/27 01:03:21;;;;;;;8.68;7.40;;;;;;;12.17;71.88;101676.03;833654;23;860;-77
2022/10/27 01:03:44;;;;;;;9.20;7.55;;;;;;;12.18;71.70;101680.44;828593;23;1347;-77
2022/10/27 01:04:04;;;;;;;10.07;7.80;;;;;;;12.14;71.99;101675.91;828532;23;1075;-77
2022/10/27 01:04:37;;;;;;;10.65;8.15;;;;;;;12.24;71.71;101692.84;832157;23;814;-77
2022/10/27 01:05:18;;;;;;;10.10;8.00;;;;;;;12.40;71.82;101686.44;828180;23;1098;-77
2022/10/27 01:05:39;;;;;;;12.63;7.78;;;;;;;12.29;71.46;101684.31;824579;23;922;-77
2022/10/27 01:06:01;;;;;;;11.20;7.60;;;;;;;12.26;71.69;101686.81;828236;23;1140;-78
2022/10/27 01:06:24;;;;;;;10.38;7.47;;;;;;;12.17;71.41;101673.41;832444;23;1655;-77
2022/10/27 01:06:45;;;;;;;9.20;7.40;;;;;;;12.14;71.83;101668.97;824520;23;1408;-77
2022/10/27 01:07:06;;;;;;;10.05;7.80;;;;;;;12.30;71.46;101673.00;829640;23;1905;-77
2022/10/27 01:07:28;;;;;;;9.67;7.80;;;;;;;12.26;71.56;101680.69;828494;23;1111;-78
2022/10/27 01:07:51;;;;;;;10.43;8.05;;;;;;;12.24;71.42;101682.38;825875;24;938;-78
2022/10/27 01:08:13;;;;;;;10.70;7.68;;;;;;;12.20;71.62;101677.03;828367;23;1176;-78
2022/10/27 01:08:34;;;;;;;9.10;7.18;;;;;;;12.32;71.75;101675.69;828329;23;1241;-77
2022/10/27 01:08:56;;;;;;;9.75;7.13;;;;;;;12.39;71.18;101667.22;833524;23;939;-77
2022/10/27 01:09:20;;;;;;;9.18;7.28;;;;;;;12.26;71.26;101673.75;835207;23;1293;-77
2022/10/27 01:09:42;;;;;;;9.70;7.47;;;;;;;12.24;71.34;101680.66;831871;23;1441;-77
2022/10/27 01:10:04;;;;;;;9.15;7.50;;;;;;;12.20;71.49;101681.38;820354;24;1227;-77
2022/10/27 01:10:26;;;;;;;9.07;8.00;;;;;;;12.17;71.83;101682.13;824199;24;1230;-77
2022/10/27 01:10:46;;;;;;;10.40;8.07;;;;;;;12.16;71.54;101680.38;828014;23;1324;-77
2022/10/27 01:11:07;;;;;;;10.97;7.93;;;;;;;12.17;71.79;101681.28;829591;23;978;-77
2022/10/27 01:11:28;;;;;;;10.95;7.80;;;;;;;12.17;71.93;101679.53;825677;24;780;-77
2022/10/27 01:11:48;;;;;;;9.00;7.35;;;;;;;12.20;71.64;101686.59;825701;24;992;-77
2022/10/27 01:12:09;;;;;;;9.03;7.20;;;;;;;12.18;71.55;101683.03;825694;24;1086;-77
2022/10/27 01:12:31;;;;;;;10.65;7.65;;;;;;;12.15;71.98;101682.91;824322;24;1536;-77
2022/10/27 01:12:54;;;;;;;12.15;8.10;;;;;;;12.15;71.92;101682.91;824315;24;1235;-78
2022/10/27 01:13:16;;;;;;;12.60;8.32;;;;;;;12.14;71.58;101673.28;824362;24;1253;-77
2022/10/27 01:13:37;;;;;;;14.55;8.27;;;;;;;12.24;71.94;101683.28;822078;24;748;-77
2022/10/27 01:13:57;;;;;;;14.10;8.15;;;;;;;12.16;71.68;101682.09;821889;24;881;-77
2022/10/27 01:14:18;;;;;;;12.68;8.15;;;;;;;12.19;71.66;101680.47;820615;24;2275;-77
2022/10/27 01:14:39;;;;;;;10.73;8.03;;;;;;;12.16;71.68;101685.59;825611;24;906;-77
2022/10/27 01:15:00;;;;;;;10.20;7.70;;;;;;;12.12;71.67;101675.88;820246;24;1042;-77
2022/10/27 01:15:30;;;;;;;9.98;7.40;;;;;;;12.18;71.46;101677.81;824189;24;1245;-78
2022/10/27 01:16:12;;;;;;;12.60;7.97;;;;;;;12.25;71.55;101690.28;828037;23;1407;-77
2022/10/27 01:16:42;;;;;;;14.32;8.23;;;;;;;12.22;71.75;101690.16;833668;23;834;-77
2022/10/27 01:17:36;;;;;;;11.75;8.15;;;;;;;12.23;71.63;101694.56;827955;23;1273;-78
2022/10/27 01:18:24;;;;;;;9.98;7.25;;;;;;;12.21;71.53;101696.22;824260;24;975;-77
2022/10/27 01:18:48;;;;;;;15.27;8.00;;;;;;;12.20;71.72;101695.34;828247;23;1501;-78
2022/10/27 01:19:38;;;;;;;15.90;8.50;;;;;;;12.14;71.69;101682.03;828169;23;1258;-77
2022/10/27 01:20:23;;;;;;;9.63;7.45;;;;;;;12.12;71.63;101682.81;833042;23;1120;-77
2022/10/27 01:21:04;;;;;;;9.88;7.80;;;;;;;12.06;71.61;101668.66;829622;23;767;-78
2022/10/27 01:21:43;;;;;;;9.35;7.50;;;;;;;12.22;71.74;101690.16;828193;23;1462;-77
2022/10/27 01:22:13;;;;;;;10.88;7.60;;;;;;;12.22;71.39;101700.63;825797;24;1023;-77
2022/10/27 01:23:05;;;;;;;13.52;7.90;;;;;;;12.11;71.32;101681.03;826012;23;1278;-77
2022/10/27 01:23:37;;;;;;;9.70;8.13;;;;;;;12.23;71.49;101701.53;833783;23;871;-77
2022/10/27 01:24:29;;;;;;;10.32;8.40;;;;;;;12.15;71.38;101688.16;831961;23;1232;-78
2022/10/27 01:25:10;;;;;;;13.10;7.82;;;;;;;12.20;71.36;101702.31;823839;24;1297;-77
2022/10/27 01:25:52;;;;;;;12.48;7.80;;;;;;;12.16;71.34;101696.06;820512;24;1166;-77
2022/10/27 01:26:33;;;;;;;10.93;7.53;;;;;;;12.17;71.36;101703.06;829320;23;1061;-78
2022/10/27 01:26:59;;;;;;;9.65;7.40;;;;;;;12.11;71.58;101694.13;829023;23;844;-77
2022/10/27 01:27:47;;;;;;;8.60;7.32;;;;;;;12.14;71.41;101704.69;835173;23;1431;-78
2022/10/27 01:28:33;;;;;;;9.32;7.75;;;;;;;12.15;71.75;101704.75;831821;23;943;-77
2022/10/27 01:29:11;;;;;;;11.77;7.72;;;;;;;12.16;71.52;101703.03;828260;23;1908;-78
2022/10/27 01:30:02;;;;;;;10.02;8.00;;;;;;;12.17;71.43;101697.84;831612;23;838;-77
2022/10/27 01:30:27;;;;;;;10.15;7.90;;;;;;;12.05;71.56;101679.09;833222;23;785;-77
2022/10/27 01:31:10;;;;;;;8.80;7.90;;;;;;;12.07;71.26;101680.91;824141;24;1490;-77
2022/10/27 01:31:45;;;;;;;10.18;7.80;;;;;;;12.13;71.57;101693.34;820476;23;878;-78
2022/10/27 01:32:35;;;;;;;12.50;8.00;;;;;;;12.15;71.59;101696.00;821689;24;1144;-77
2022/10/27 01:33:06;;;;;;;8.63;7.57;;;;;;;12.13;71.60;101698.59;820252;24;1000;-77
2022/10/27 01:33:48;;;;;;;8.20;7.30;;;;;;;12.03;71.72;101691.22;820445;24;875;-78
2022/10/27 01:34:32;;;;;;;9.20;7.35;;;;;;;12.01;71.73;101691.19;825588;24;1011;-78
2022/10/27 01:35:07;;;;;;;9.10;7.65;;;;;;;12.09;71.82;101703.66;820128;24;2004;-78
2022/10/27 01:35:42;;;;;;;8.73;7.70;;;;;;;12.07;71.51;101706.19;821685;24;849;-77
2022/10/27 01:36:14;;;;;;;10.98;8.20;;;;;;;11.97;71.90;101686.66;827905;23;1070;-78
2022/10/27 01:36:42;;;;;;;11.93;8.35;;;;;;;11.97;71.67;101694.50;824708;23;1221;-77
2022/10/27 01:37:14;;;;;;;10.55;8.27;;;;;;;12.06;71.80;101705.28;828029;23;1239;-78
2022/10/27 01:38:02;;;;;;;10.80;8.15;;;;;;;12.06;71.87;101707.91;816642;24;866;-78
2022/10/27 01:38:28;;;;;;;10.60;8.18;;;;;;;11.98;71.50;101695.41;819891;24;1316;-78
2022/10/27 01:39:23;;;;;;;8.90;7.60;;;;;;;12.00;71.67;101702.47;825427;24;1087;-77
2022/10/27 01:40:01;;;;;;;9.70;8.00;;;;;;;12.02;71.95;101706.03;827443;23;1301;-78
2022/10/27 01:40:32;;;;;;;10.65;7.78;;;;;;;11.95;71.66;101688.31;823999;23;1114;-78
2022/10/27 01:41:25;;;;;;;11.65;7.90;;;;;;;12.01;71.80;101705.97;825526;23;959;-77
2022/10/27 01:41:50;;;;;;;11.65;8.10;;;;;;;11.93;71.78;101687.38;823959;24;1446;-77
2022/10/27 01:42:18;;;;;;;11.48;8.10;;;;;;;12.01;71.86;101706.88;821336;24;1378;-77
2022/10/27 01:42:49;;;;;;;10.45;7.93;;;;;;;12.02;71.94;101708.66;824287;24;1249;-77
2022/10/27 01:43:16;;;;;;;11.25;8.40;;;;;;;12.07;71.66;101699.22;817888;24;959;-78
2022/10/27 01:43:38;;;;;;;10.25;8.13;;;;;;;12.15;71.52;101706.47;817923;24;1441;-78
2022/10/27 01:44:03;;;;;;;10.27;7.80;;;;;;;12.15;71.06;101698.63;820186;24;1318;-77
2022/10/27 01:44:30;;;;;;;10.63;7.55;;;;;;;12.19;71.17;101703.13;821076;24;1325;-77
2022/10/27 01:44:53;;;;;;;11.10;7.70;;;;;;;12.24;70.94;101706.81;825444;24;887;-78
2022/10/27 01:45:21;;;;;;;10.43;7.60;;;;;;;12.19;71.03;101695.28;824073;24;1332;-77
2022/10/27 01:45:42;;;;;;;10.40;7.35;;;;;;;12.19;70.92;101692.69;823983;24;1264;-78
2022/10/27 01:46:07;;;;;;;10.60;7.30;;;;;;;12.21;70.72;101698.84;823944;24;1305;-77
2022/10/27 01:46:28;;;;;;;10.57;7.30;;;;;;;12.22;70.51;101689.28;831860;23;1394;-77
2022/10/27 01:46:50;;;;;;;10.93;7.33;;;;;;;12.27;70.85;101698.16;829338;23;927;-77
2022/10/27 01:47:11;;;;;;;11.60;7.40;;;;;;;12.33;70.80;101703.63;833170;23;1957;-78
2022/10/27 01:47:32;;;;;;;11.15;7.55;;;;;;;12.31;70.43;101700.06;824068;24;1234;-78
2022/10/27 01:47:55;;;;;;;11.32;7.70;;;;;;;12.26;70.25;101694.69;825400;24;1022;-77
2022/10/27 01:48:17;;;;;;;13.00;7.90;;;;;;;12.30;70.56;101706.16;820332;24;1339;-78
2022/10/27 01:48:38;;;;;;;12.70;7.68;;;;;;;12.23;70.48;101694.56;824090;24;1207;-77
2022/10/27 01:49:02;;;;;;;13.18;7.70;;;;;;;12.28;70.41;101708.69;824045;24;1552;-77
2022/10/27 01:49:23;;;;;;;11.02;7.70;;;;;;;12.24;70.40;101698.97;821846;24;709;-77
2022/10/27 01:49:44;;;;;;;9.27;7.75;;;;;;;12.31;70.13;101705.31;828953;23;795;-77
2022/10/27 01:50:05;;;;;;;9.30;7.90;;;;;;;12.32;70.41;101713.22;828055;23;1153;-77
2022/10/27 01:50:31;;;;;;;9.00;7.90;;;;;;;12.31;70.63;101714.03;829407;23;764;-77
2022/10/27 01:50:52;;;;;;;10.20;7.90;;;;;;;12.23;70.18;101696.28;824173;24;1476;-77
2022/10/27 01:51:13;;;;;;;11.13;7.85;;;;;;;12.20;70.27;101692.75;827919;23;1538;-77
2022/10/27 01:51:35;;;;;;;11.65;8.18;;;;;;;12.24;70.63;101712.06;824347;24;1273;-77
2022/10/27 01:52:03;;;;;;;10.45;8.20;;;;;;;12.12;70.41;101709.88;827810;23;1334;-77
2022/10/27 01:52:44;;;;;;;9.63;8.20;;;;;;;12.24;70.54;101713.78;827924;23;942;-77
2022/10/27 01:53:05;;;;;;;9.95;7.88;;;;;;;12.29;70.62;101713.09;824016;24;1083;-78
2022/10/27 01:53:27;;;;;;;11.90;8.20;;;;;;;12.24;70.59;101706.81;821598;24;875;-77
2022/10/27 01:53:50;;;;;;;11.57;8.15;;;;;;;12.18;70.43;101701.38;825187;24;1046;-77
2022/10/27 01:54:11;;;;;;;10.65;8.32;;;;;;;12.20;70.86;101702.31;823092;24;1158;-78
2022/10/27 01:54:35;;;;;;;8.88;7.72;;;;;;;12.25;70.74;101707.69;824042;24;1177;-77
2022/10/27 01:54:56;;;;;;;9.13;7.97;;;;;;;12.30;70.38;101714.00;827914;23;1317;-77
2022/10/27 01:55:26;;;;;;;10.07;8.02;;;;;;;12.32;70.27;101712.31;829204;23;1017;-77
2022/10/27 01:55:55;;;;;;;11.18;8.18;;;;;;;12.24;70.30;101700.69;830152;23;907;-77
2022/10/27 01:56:35;;;;;;;11.25;8.05;;;;;;;12.21;70.04;101698.84;831391;23;1114;-77
2022/10/27 01:57:32;;;;;;;10.43;7.97;;;;;;;12.28;70.26;101707.84;830425;23;924;-77
2022/10/27 01:58:06;;;;;;;9.20;8.20;;;;;;;12.31;70.49;101714.03;824075;24;1402;-77
2022/10/27 01:58:51;;;;;;;11.98;8.13;;;;;;;12.31;70.34;101716.66;825301;24;823;-77
2022/10/27 01:59:45;;;;;;;13.45;8.15;;;;;;;12.31;70.20;101716.66;825453;24;1070;-77
2022/10/27 02:00:07;;;;;;;10.30;8.02;;;;;;;12.22;70.09;101700.63;833221;23;1120;-77
2022/10/27 02:00:34;;;;;;;11.88;8.30;;;;;;;12.24;70.08;101704.22;831800;23;1364;-77
2022/10/27 02:01:10;;;;;;;12.82;8.88;;;;;;;12.29;70.29;101718.34;831845;23;1178;-77
2022/10/27 02:01:49;;;;;;;9.65;8.07;;;;;;;12.28;70.27;101716.56;827912;23;1142;-77
2022/10/27 02:02:24;;;;;;;11.50;8.07;;;;;;;12.26;70.36;101717.34;825693;23;1039;-77
2022/10/27 02:03:00;;;;;;;12.73;8.38;;;;;;;12.14;70.22;101696.84;833165;23;891;-78